Archival Weather

Aeroparque Jorge Newbery

Buenos Aires, Argentina (SABE)

Report from: Thursday, September 21, 2023 10:00 AM -03
Current time: Saturday, March 2, 2024 6:04 AM -03

Current weather – Weather history – Daily summaries
Weather forecast

Temperature19.0°C (66.2°F)
Dew point16.0°C (60.8°F)
Winds 3 kts (1.5 m/s, 3.5 mph) Vrb
Winds variableWinds variable
Visibility5.6 mi. (9 km)
Clouds Scattered clouds 1,000 ft. (305 m)
Ceiling: Broken clouds 4,800 ft. (1,463 m)
Altimeter29.80 in.Hg (1009 mB)
Relative humidity83 %
Density altitude863 ft. (263 m)
Remarks No significant changes expected in the next two hours
Flight conditions Visual Meteorological Conditions
Raw dataSABE 211300Z VRB03KT 9000 SCT010 BKN048 19/16 Q1009 NOSIG RMK PP000
An error has occurred. This application may no longer respond until reloaded. Reload 🗙